Grand Marais, Minnesota
Current Conditions -  °F | °C
As of 2:53 PM on Sunday 21 Dec 2014 (Local Time) from KCKC Reporting Station
Unknown Precip Unknown Precip  
Wind Chill: 21°   Ceiling: 200
Heat Index: 28°   Visibility: 0.75mi
Dew Point: 27°   Wind: 7mph
Humidity: 93%   Direction: 130°SE
Pressure: 29.8"   Gusts: NA
Location:  47.75°N, 90.33°W
Report Text: KCKC 212053Z AUTO 13006KT 3/4SM UP OVC002 M02/M03 A2980 RMK AO2
Loading
Personal Weather Stations






























Interactive Weather Map New forecast layout! Learn more

10-Day Weather Forecast

Advertisements
Track Severe Weather on mobile